Time;durP1;ratioP1;P1;durP2;ratioP2;P2;SDS_P1;SDS_P2;PMS_P1;PMS_P2;Temp;Humidity;BMP_temperature;BMP_pressure;BME280_temperature;BME280_humidity;BME280_pressure;Samples;Min_cycle;Max_cycle;Signal;HPM_P1;HPM_P2
2021/11/05 00:00:36;;;;;;;6.78;6.00;;;;;;;;;;5036923;28;20221;-81
2021/11/05 00:03:03;;;;;;;6.53;5.88;;;;;;;;;;5035049;28;20202;-81
2021/11/05 00:05:33;;;;;;;9.90;6.45;;;;;;;;;;5036819;28;20225;-81
2021/11/05 00:08:04;;;;;;;7.57;6.80;;;;;;;;;;5035398;28;20199;-82
2021/11/05 00:10:32;;;;;;;8.05;7.25;;;;;;;;;;5037008;28;20186;-81
2021/11/05 00:12:59;;;;;;;7.68;6.32;;;;;;;;;;5035502;28;20594;-80
2021/11/05 00:15:28;;;;;;;9.57;7.85;;;;;;;;;;5036840;28;20202;-82
2021/11/05 00:17:55;;;;;;;8.48;7.68;;;;;;;;;;5036479;28;20182;-81
2021/11/05 00:20:23;;;;;;;11.18;8.50;;;;;;;;;;5036217;28;20186;-83
2021/11/05 00:22:52;;;;;;;8.15;7.35;;;;;;;;;;5036898;28;20190;-82
2021/11/05 00:25:20;;;;;;;8.60;7.38;;;;;;;;;;5035749;28;20221;-81
2021/11/05 00:27:48;;;;;;;7.30;6.60;;;;;;;;;;5036344;28;20193;-81
2021/11/05 00:30:16;;;;;;;8.30;7.50;;;;;;;;;;5036352;28;20582;-81
2021/11/05 00:32:45;;;;;;;6.75;6.10;;;;;;;;;;5034524;28;20683;-81
2021/11/05 00:35:13;;;;;;;7.40;6.38;;;;;;;;;;5037038;28;20190;-81
2021/11/05 00:37:41;;;;;;;8.40;7.18;;;;;;;;;;5036582;28;20182;-82
2021/11/05 00:40:13;;;;;;;7.55;6.82;;;;;;;;;;5035841;28;20218;-82
2021/11/05 00:42:40;;;;;;;7.45;6.72;;;;;;;;;;5035567;28;20197;-82
2021/11/05 00:45:10;;;;;;;8.48;6.55;;;;;;;;;;5035370;28;20213;-80
2021/11/05 00:47:37;;;;;;;9.02;7.38;;;;;;;;;;5034960;28;20225;-82
2021/11/05 00:50:06;;;;;;;7.97;7.20;;;;;;;;;;5035009;28;20238;-82
2021/11/05 00:52:45;;;;;;;7.95;6.75;;;;;;;;;;5035527;28;20179;-82
2021/11/05 00:55:14;;;;;;;8.88;7.68;;;;;;;;;;5034718;28;20297;-81
2021/11/05 00:57:41;;;;;;;8.68;7.80;;;;;;;;;;5036058;28;20202;-83
2021/11/05 01:00:12;;;;;;;9.77;7.97;;;;;;;;;;5035327;28;20226;-82
2021/11/05 01:02:40;;;;;;;10.10;9.13;;;;;;;;;;5034544;28;20198;-82
2021/11/05 01:05:09;;;;;;;9.68;8.68;;;;;;;;;;5035973;28;20205;-82
2021/11/05 01:07:36;;;;;;;12.27;9.63;;;;;;;;;;5035440;28;20190;-82
2021/11/05 01:10:05;;;;;;;9.90;8.90;;;;;;;;;;5035729;28;20593;-83
2021/11/05 01:12:34;;;;;;;11.18;9.40;;;;;;;;;;5034131;28;20198;-81
2021/11/05 01:15:01;;;;;;;10.63;9.52;;;;;;;;;;5036005;28;20186;-83
2021/11/05 01:17:30;;;;;;;10.68;9.57;;;;;;;;;;5016082;28;20187;-82
2021/11/05 01:19:57;;;;;;;12.93;9.50;;;;;;;;;;5016058;28;20238;-82
2021/11/05 01:22:25;;;;;;;12.55;10.82;;;;;;;;;;5016168;28;20211;-83
2021/11/05 01:24:52;;;;;;;9.85;8.40;;;;;;;;;;5015420;28;20199;-83
2021/11/05 01:27:20;;;;;;;10.52;9.48;;;;;;;;;;5033906;28;20218;-82
2021/11/05 01:29:50;;;;;;;11.98;9.75;;;;;;;;;;5035287;28;20230;-82
2021/11/05 01:32:17;;;;;;;11.65;10.45;;;;;;;;;;5035144;28;20206;-82
2021/11/05 01:34:46;;;;;;;11.65;9.60;;;;;;;;;;5035784;28;20198;-82
2021/11/05 01:37:13;;;;;;;12.30;10.23;;;;;;;;;;5034768;28;20261;-82
2021/11/05 01:39:41;;;;;;;12.27;10.20;;;;;;;;;;5036173;28;20232;-83
2021/11/05 01:42:09;;;;;;;13.07;11.70;;;;;;;;;;5035788;28;20183;-81
2021/11/05 01:44:36;;;;;;;10.75;9.40;;;;;;;;;;5034837;28;20195;-83
2021/11/05 01:47:06;;;;;;;10.52;9.50;;;;;;;;;;5035396;28;20233;-82
2021/11/05 01:49:33;;;;;;;12.65;10.35;;;;;;;;;;5035507;28;20242;-83
2021/11/05 01:52:01;;;;;;;11.55;10.38;;;;;;;;;;5035791;28;20195;-83
2021/11/05 01:54:28;;;;;;;13.52;11.23;;;;;;;;;;5035803;28;20220;-83
2021/11/05 01:56:56;;;;;;;12.60;10.63;;;;;;;;;;5035515;28;20187;-82
2021/11/05 01:59:26;;;;;;;14.00;10.82;;;;;;;;;;5036339;28;20225;-82
2021/11/05 02:01:55;;;;;;;14.02;11.85;;;;;;;;;;5039554;28;20206;-82
2021/11/05 02:04:24;;;;;;;13.27;10.93;;;;;;;;;;5038682;28;20185;-82
2021/11/05 02:06:53;;;;;;;12.82;11.45;;;;;;;;;;5038613;28;20237;-83
2021/11/05 02:09:23;;;;;;;13.90;10.90;;;;;;;;;;5039262;28;20236;-82
2021/11/05 02:11:53;;;;;;;10.60;9.25;;;;;;;;;;5038977;28;20201;-82
2021/11/05 02:14:22;;;;;;;10.55;8.93;;;;;;;;;;5038632;28;20210;-81
2021/11/05 02:16:53;;;;;;;13.55;11.05;;;;;;;;;;5039160;28;20186;-83
2021/11/05 02:19:24;;;;;;;11.98;8.52;;;;;;;;;;5038572;28;20222;-83
2021/11/05 02:21:55;;;;;;;10.82;9.70;;;;;;;;;;5038158;28;20573;-82
2021/11/05 02:24:25;;;;;;;13.32;10.93;;;;;;;;;;5038231;28;20191;-82
2021/11/05 02:26:54;;;;;;;10.82;8.65;;;;;;;;;;5038538;28;20222;-82
2021/11/05 02:29:23;;;;;;;13.93;12.07;;;;;;;;;;5038530;28;20747;-82
2021/11/05 02:31:51;;;;;;;15.93;13.68;;;;;;;;;;5037934;28;20206;-83
2021/11/05 02:34:19;;;;;;;12.90;11.45;;;;;;;;;;5038171;28;20193;-83
2021/11/05 02:36:47;;;;;;;17.67;12.25;;;;;;;;;;5038764;28;20202;-82
2021/11/05 02:39:16;;;;;;;16.30;12.65;;;;;;;;;;5038682;28;20221;-81
2021/11/05 02:41:48;;;;;;;13.60;10.88;;;;;;;;;;5038111;28;20206;-83
2021/11/05 02:44:16;;;;;;;14.95;12.18;;;;;;;;;;5037431;28;20206;-82
2021/11/05 02:46:44;;;;;;;12.25;10.95;;;;;;;;;;5017931;28;20301;-83
2021/11/05 02:49:14;;;;;;;12.27;11.00;;;;;;;;;;5017997;28;20231;-83
2021/11/05 02:51:43;;;;;;;13.48;11.40;;;;;;;;;;5018486;28;20219;-83
2021/11/05 02:54:11;;;;;;;12.23;10.45;;;;;;;;;;5027143;28;20194;-83
2021/11/05 02:56:39;;;;;;;12.82;10.63;;;;;;;;;;5038463;28;20254;-83
2021/11/05 02:59:07;;;;;;;11.98;10.20;;;;;;;;;;5038343;28;20214;-83
2021/11/05 03:01:36;;;;;;;11.50;9.65;;;;;;;;;;5038193;28;20189;-82
2021/11/05 03:04:05;;;;;;;12.50;10.48;;;;;;;;;;5037818;28;20186;-83
2021/11/05 03:06:35;;;;;;;12.32;10.65;;;;;;;;;;5037812;28;20179;-83
2021/11/05 03:09:08;;;;;;;13.68;11.02;;;;;;;;;;5037661;28;20233;-82
2021/11/05 03:11:36;;;;;;;11.20;10.00;;;;;;;;;;5037870;28;20205;-83
2021/11/05 03:14:06;;;;;;;12.95;10.57;;;;;;;;;;5038655;28;20727;-83
2021/11/05 03:16:34;;;;;;;13.23;11.02;;;;;;;;;;5037974;28;20186;-82
2021/11/05 03:19:03;;;;;;;11.07;9.82;;;;;;;;;;5037488;28;20278;-81
2021/11/05 03:21:30;;;;;;;10.48;9.32;;;;;;;;;;5038173;28;20545;-83
2021/11/05 03:23:58;;;;;;;13.00;9.02;;;;;;;;;;5038025;28;20206;-82
2021/11/05 03:26:25;;;;;;;10.02;8.68;;;;;;;;;;5037727;28;20597;-83
2021/11/05 03:28:53;;;;;;;11.45;9.35;;;;;;;;;;5037810;28;20288;-82
2021/11/05 03:31:22;;;;;;;10.13;8.57;;;;;;;;;;5037904;28;20206;-83
2021/11/05 03:33:49;;;;;;;11.10;9.80;;;;;;;;;;5037348;28;20194;-83
2021/11/05 03:36:17;;;;;;;11.75;9.65;;;;;;;;;;5038499;28;20289;-82
2021/11/05 03:38:44;;;;;;;11.18;9.15;;;;;;;;;;5039004;28;20277;-82
2021/11/05 03:41:12;;;;;;;10.60;9.23;;;;;;;;;;5038268;28;20210;-83
2021/11/05 03:43:40;;;;;;;9.80;8.80;;;;;;;;;;5037368;28;20252;-83
2021/11/05 03:46:08;;;;;;;10.60;8.73;;;;;;;;;;5036900;28;20201;-83
2021/11/05 03:48:39;;;;;;;10.23;9.20;;;;;;;;;;5035839;28;20234;-83
2021/11/05 03:51:06;;;;;;;12.32;9.77;;;;;;;;;;5037274;28;20204;-83
2021/11/05 03:53:34;;;;;;;10.63;8.85;;;;;;;;;;5037800;28;20208;-82
2021/11/05 03:56:01;;;;;;;11.70;9.82;;;;;;;;;;5037306;28;20202;-83
2021/11/05 03:58:29;;;;;;;12.82;10.27;;;;;;;;;;5038458;28;20730;-82
2021/11/05 04:00:57;;;;;;;14.20;11.40;;;;;;;;;;5038032;28;20207;-83
2021/11/05 04:03:25;;;;;;;11.18;9.80;;;;;;;;;;5038338;28;20340;-83
2021/11/05 04:05:54;;;;;;;13.45;11.05;;;;;;;;;;5038207;28;20208;-83
2021/11/05 04:08:21;;;;;;;15.07;13.48;;;;;;;;;;5035894;28;20700;-82
2021/11/05 04:10:48;;;;;;;13.10;9.95;;;;;;;;;;5036264;28;20664;-82
2021/11/05 04:13:16;;;;;;;15.98;11.48;;;;;;;;;;5035528;28;20202;-82
2021/11/05 04:15:44;;;;;;;13.43;11.15;;;;;;;;;;5035919;28;20196;-83
2021/11/05 04:18:11;;;;;;;16.10;12.25;;;;;;;;;;5035765;28;20187;-83
2021/11/05 04:20:40;;;;;;;13.82;11.90;;;;;;;;;;5035612;28;20182;-82
2021/11/05 04:23:09;;;;;;;15.73;12.65;;;;;;;;;;5034771;28;20214;-82
2021/11/05 04:25:37;;;;;;;13.05;10.70;;;;;;;;;;5035491;28;20198;-82
2021/11/05 04:28:05;;;;;;;14.82;11.82;;;;;;;;;;5035977;28;20688;-82
2021/11/05 04:30:33;;;;;;;15.80;12.98;;;;;;;;;;5035779;28;20559;-82
2021/11/05 04:33:00;;;;;;;15.50;12.40;;;;;;;;;;5036226;28;20633;-82
2021/11/05 04:35:28;;;;;;;16.63;13.68;;;;;;;;;;5035821;28;20186;-81
2021/11/05 04:37:55;;;;;;;18.13;15.85;;;;;;;;;;5036246;28;20253;-81
2021/11/05 04:40:24;;;;;;;19.05;14.65;;;;;;;;;;5036328;28;20186;-83
2021/11/05 04:42:51;;;;;;;15.75;13.38;;;;;;;;;;5034551;28;20211;-84
2021/11/05 04:45:19;;;;;;;18.02;13.90;;;;;;;;;;5036347;28;20186;-84
2021/11/05 04:47:46;;;;;;;20.20;15.13;;;;;;;;;;5036011;28;20210;-84
2021/11/05 04:50:14;;;;;;;18.52;14.98;;;;;;;;;;5036181;28;20242;-83
2021/11/05 04:52:47;;;;;;;20.55;15.88;;;;;;;;;;5035439;28;20241;-83
2021/11/05 04:55:16;;;;;;;19.40;14.57;;;;;;;;;;5035778;28;20230;-82
2021/11/05 04:57:45;;;;;;;16.15;12.60;;;;;;;;;;5036301;28;20204;-83
2021/11/05 05:00:14;;;;;;;18.73;14.63;;;;;;;;;;5036110;28;20568;-81
2021/11/05 05:02:41;;;;;;;20.67;14.65;;;;;;;;;;5034505;28;20641;-83
2021/11/05 05:05:09;;;;;;;19.92;15.18;;;;;;;;;;5036077;28;20178;-82
2021/11/05 05:07:37;;;;;;;18.05;13.85;;;;;;;;;;5035695;28;20197;-82
2021/11/05 05:10:06;;;;;;;18.73;14.52;;;;;;;;;;5035387;28;20223;-82
2021/11/05 05:12:34;;;;;;;17.10;13.20;;;;;;;;;;5034257;28;20205;-83
2021/11/05 05:15:05;;;;;;;16.92;14.15;;;;;;;;;;5035184;28;20185;-83
2021/11/05 05:17:32;;;;;;;15.88;14.27;;;;;;;;;;5035589;28;20187;-83
2021/11/05 05:20:00;;;;;;;16.33;12.93;;;;;;;;;;5035628;28;20250;-82
2021/11/05 05:22:27;;;;;;;17.70;14.13;;;;;;;;;;5034415;28;20204;-83
2021/11/05 05:24:55;;;;;;;17.23;14.02;;;;;;;;;;5035602;28;20186;-83
2021/11/05 05:27:22;;;;;;;15.95;13.57;;;;;;;;;;5034170;28;20208;-82
2021/11/05 05:29:50;;;;;;;15.60;11.63;;;;;;;;;;5035327;28;20226;-82
2021/11/05 05:32:20;;;;;;;15.18;11.93;;;;;;;;;;5033698;28;20207;-82
2021/11/05 05:34:47;;;;;;;13.88;11.68;;;;;;;;;;5036592;28;20217;-82
2021/11/05 05:37:15;;;;;;;12.98;10.93;;;;;;;;;;5038776;28;20201;-82
2021/11/05 05:39:42;;;;;;;14.57;11.77;;;;;;;;;;5038855;28;20688;-82
2021/11/05 05:42:10;;;;;;;16.85;12.80;;;;;;;;;;5037954;28;20202;-82
2021/11/05 05:44:37;;;;;;;15.40;12.88;;;;;;;;;;5038498;28;20588;-80
2021/11/05 05:47:07;;;;;;;17.13;12.50;;;;;;;;;;5038597;28;20645;-82
2021/11/05 05:49:37;;;;;;;15.05;12.43;;;;;;;;;;5038680;28;20238;-82
2021/11/05 05:52:05;;;;;;;17.05;14.88;;;;;;;;;;5039371;28;20190;-82
2021/11/05 05:54:33;;;;;;;18.30;12.95;;;;;;;;;;5038744;28;20641;-83
2021/11/05 05:57:00;;;;;;;15.27;13.25;;;;;;;;;;5038745;28;20206;-83
2021/11/05 05:59:28;;;;;;;16.13;12.73;;;;;;;;;;5038671;28;20696;-82
2021/11/05 06:01:55;;;;;;;15.98;12.43;;;;;;;;;;5038411;28;20197;-83
2021/11/05 06:04:26;;;;;;;16.92;13.20;;;;;;;;;;5037809;28;20194;-83
2021/11/05 06:06:55;;;;;;;16.55;11.98;;;;;;;;;;5038508;28;20205;-83
2021/11/05 06:09:23;;;;;;;15.63;12.30;;;;;;;;;;5038205;28;20236;-81
2021/11/05 06:11:50;;;;;;;15.60;11.80;;;;;;;;;;5037905;28;20552;-81
2021/11/05 06:14:18;;;;;;;18.33;13.13;;;;;;;;;;5033310;28;20202;-82
2021/11/05 06:16:45;;;;;;;16.52;13.05;;;;;;;;;;5022007;28;20650;-81
2021/11/05 06:19:13;;;;;;;17.52;13.52;;;;;;;;;;5019033;28;20226;-81
2021/11/05 06:21:40;;;;;;;18.67;13.48;;;;;;;;;;5031310;28;20563;-80
2021/11/05 06:24:09;;;;;;;19.38;13.27;;;;;;;;;;5039520;28;20667;-82
2021/11/05 06:26:37;;;;;;;19.42;15.05;;;;;;;;;;5038158;28;20202;-80
2021/11/05 06:29:05;;;;;;;15.50;12.35;;;;;;;;;;5038440;28;20230;-81
2021/11/05 06:31:34;;;;;;;21.45;14.85;;;;;;;;;;5038334;28;20198;-80
2021/11/05 06:34:01;;;;;;;21.55;15.05;;;;;;;;;;5038753;28;20614;-81
2021/11/05 06:36:29;;;;;;;18.13;13.80;;;;;;;;;;5038229;28;20175;-80
2021/11/05 06:38:56;;;;;;;20.35;16.27;;;;;;;;;;5038274;28;20214;-82
2021/11/05 06:41:26;;;;;;;20.85;16.35;;;;;;;;;;5037732;28;20229;-81
2021/11/05 06:43:54;;;;;;;19.75;15.77;;;;;;;;;;5037587;28;20244;-81
2021/11/05 06:46:22;;;;;;;20.70;14.95;;;;;;;;;;5037439;28;20293;-82
2021/11/05 06:48:50;;;;;;;19.23;15.02;;;;;;;;;;5037834;28;20230;-81
2021/11/05 06:51:18;;;;;;;20.90;16.45;;;;;;;;;;5037973;28;20716;-80
2021/11/05 06:53:45;;;;;;;19.98;15.20;;;;;;;;;;5037290;28;20194;-81
2021/11/05 06:56:13;;;;;;;22.42;15.98;;;;;;;;;;5038171;28;20281;-82
2021/11/05 06:58:44;;;;;;;23.27;16.08;;;;;;;;;;5038121;28;20222;-83
2021/11/05 07:01:14;;;;;;;18.60;14.18;;;;;;;;;;5037693;28;20234;-82
2021/11/05 07:03:41;;;;;;;22.17;15.20;;;;;;;;;;5037442;28;20274;-81
2021/11/05 07:06:10;;;;;;;19.23;14.55;;;;;;;;;;5037561;28;20202;-82
2021/11/05 07:08:37;;;;;;;19.17;14.98;;;;;;;;;;5038046;28;20253;-82
2021/11/05 07:11:06;;;;;;;13.93;10.90;;;;;;;;;;5037639;28;20692;-82
2021/11/05 07:13:33;;;;;;;21.42;15.05;;;;;;;;;;5037230;28;20637;-81
2021/11/05 07:16:03;;;;;;;20.02;13.68;;;;;;;;;;5026198;28;20202;-82
2021/11/05 07:18:32;;;;;;;20.42;14.00;;;;;;;;;;5037198;28;20226;-81
2021/11/05 07:21:03;;;;;;;16.55;11.88;;;;;;;;;;5037493;28;20271;-81
2021/11/05 07:23:32;;;;;;;18.60;13.10;;;;;;;;;;5037310;28;20191;-82
2021/11/05 07:26:01;;;;;;;13.20;10.73;;;;;;;;;;5037492;28;20225;-80
2021/11/05 07:28:28;;;;;;;15.27;12.48;;;;;;;;;;5036858;28;20218;-80
2021/11/05 07:30:56;;;;;;;19.05;13.35;;;;;;;;;;5037110;28;20210;-81
2021/11/05 07:33:25;;;;;;;17.05;13.32;;;;;;;;;;5037029;28;20194;-82
2021/11/05 07:35:52;;;;;;;17.48;12.40;;;;;;;;;;5036820;28;20542;-81
2021/11/05 07:38:20;;;;;;;15.05;12.20;;;;;;;;;;5036636;28;20218;-82
2021/11/05 07:40:48;;;;;;;17.98;13.55;;;;;;;;;;5036896;28;20186;-82
2021/11/05 07:43:15;;;;;;;14.65;11.27;;;;;;;;;;5035591;28;20190;-82
2021/11/05 07:45:43;;;;;;;21.02;15.23;;;;;;;;;;5036341;28;20660;-81
2021/11/05 07:48:11;;;;;;;18.52;14.07;;;;;;;;;;5036492;28;20182;-81
2021/11/05 07:50:39;;;;;;;20.88;14.80;;;;;;;;;;5036363;28;20217;-82
2021/11/05 07:53:07;;;;;;;18.98;14.02;;;;;;;;;;5036197;28;20575;-81
2021/11/05 07:55:35;;;;;;;18.65;14.23;;;;;;;;;;5036048;28;20696;-79
2021/11/05 07:58:02;;;;;;;21.60;14.18;;;;;;;;;;5035670;28;20796;-82
2021/11/05 08:00:30;;;;;;;18.40;12.75;;;;;;;;;;5036432;28;20191;-82
2021/11/05 08:02:57;;;;;;;14.20;10.48;;;;;;;;;;5036508;28;20191;-82
2021/11/05 08:05:25;;;;;;;13.38;10.70;;;;;;;;;;5035948;28;20205;-81
2021/11/05 08:07:54;;;;;;;18.65;12.60;;;;;;;;;;5035204;28;20186;-81
2021/11/05 08:10:22;;;;;;;14.00;10.13;;;;;;;;;;5036037;28;20336;-81
2021/11/05 08:12:51;;;;;;;14.68;11.57;;;;;;;;;;5036338;28;20246;-81
2021/11/05 08:15:19;;;;;;;16.38;12.45;;;;;;;;;;5028789;28;20558;-81
2021/11/05 08:17:47;;;;;;;11.82;8.80;;;;;;;;;;5035341;28;20656;-81
2021/11/05 08:20:15;;;;;;;12.48;9.32;;;;;;;;;;5035529;28;20214;-81
2021/11/05 08:22:44;;;;;;;16.13;11.77;;;;;;;;;;5035680;28;20187;-81
2021/11/05 08:25:14;;;;;;;16.50;11.70;;;;;;;;;;5035189;28;20643;-81
2021/11/05 08:27:42;;;;;;;18.02;11.98;;;;;;;;;;5022661;28;20198;-81
2021/11/05 08:30:15;;;;;;;9.73;7.45;;;;;;;;;;5034827;28;20599;-81
2021/11/05 08:32:43;;;;;;;14.95;10.90;;;;;;;;;;5035843;28;20277;-81
2021/11/05 08:35:10;;;;;;;14.60;11.35;;;;;;;;;;5035138;28;20706;-81
2021/11/05 08:37:38;;;;;;;11.00;8.63;;;;;;;;;;5035119;28;20191;-82
2021/11/05 08:40:07;;;;;;;14.93;11.48;;;;;;;;;;5036237;28;20221;-80
2021/11/05 08:42:37;;;;;;;15.93;11.25;;;;;;;;;;5035888;28;20183;-80
2021/11/05 08:45:07;;;;;;;13.90;10.18;;;;;;;;;;5034907;28;20205;-80
2021/11/05 08:47:37;;;;;;;14.00;10.93;;;;;;;;;;5020544;28;20281;-81
2021/11/05 08:50:07;;;;;;;14.35;11.88;;;;;;;;;;5034956;28;20234;-81
2021/11/05 08:52:35;;;;;;;12.98;9.18;;;;;;;;;;5035296;28;20195;-81
2021/11/05 08:55:06;;;;;;;10.80;8.57;;;;;;;;;;5034907;28;20571;-80
2021/11/05 08:57:35;;;;;;;9.10;8.05;;;;;;;;;;5034822;28;20773;-80
2021/11/05 09:00:09;;;;;;;10.52;8.45;;;;;;;;;;5033146;28;20214;-81
2021/11/05 09:02:36;;;;;;;8.98;7.93;;;;;;;;;;5015868;28;20309;-81
2021/11/05 09:05:05;;;;;;;11.35;8.60;;;;;;;;;;5031909;28;20691;-81
2021/11/05 09:07:32;;;;;;;10.30;8.15;;;;;;;;;;5035392;28;20191;-81
2021/11/05 09:10:00;;;;;;;13.05;9.73;;;;;;;;;;5033790;28;20222;-81
2021/11/05 09:12:29;;;;;;;9.27;7.80;;;;;;;;;;5035214;28;20187;-81
2021/11/05 09:14:57;;;;;;;8.70;7.45;;;;;;;;;;5035525;28;20202;-81
2021/11/05 09:17:26;;;;;;;9.85;7.93;;;;;;;;;;5035650;28;20201;-81
2021/11/05 09:19:53;;;;;;;11.15;7.57;;;;;;;;;;5034925;28;20248;-81
2021/11/05 09:22:21;;;;;;;8.13;6.18;;;;;;;;;;5035633;28;20213;-81
2021/11/05 09:24:50;;;;;;;9.10;7.20;;;;;;;;;;5035560;28;20191;-81
2021/11/05 09:27:17;;;;;;;7.13;6.43;;;;;;;;;;5035147;28;20270;-81
2021/11/05 09:29:45;;;;;;;9.82;7.32;;;;;;;;;;5034971;28;20218;-81
2021/11/05 09:32:12;;;;;;;12.27;6.53;;;;;;;;;;5034480;28;20232;-81
2021/11/05 09:34:42;;;;;;;7.53;5.60;;;;;;;;;;5035036;28;20212;-81
2021/11/05 09:37:09;;;;;;;11.88;7.03;;;;;;;;;;5035541;28;20197;-81
2021/11/05 09:39:37;;;;;;;10.50;7.43;;;;;;;;;;5035974;28;20262;-81
2021/11/05 09:42:05;;;;;;;9.55;7.10;;;;;;;;;;5035841;28;20273;-82
2021/11/05 09:44:34;;;;;;;10.30;8.60;;;;;;;;;;5034160;28;20544;-82
2021/11/05 09:47:04;;;;;;;7.53;6.15;;;;;;;;;;5044593;28;20212;-82
2021/11/05 09:49:34;;;;;;;7.18;5.80;;;;;;;;;;5040212;28;20715;-81
2021/11/05 09:52:06;;;;;;;7.40;5.80;;;;;;;;;;5035652;28;20210;-82
2021/11/05 09:54:38;;;;;;;9.05;6.20;;;;;;;;;;5034414;28;20572;-81
2021/11/05 09:57:06;;;;;;;7.82;6.55;;;;;;;;;;5035920;28;20191;-82
2021/11/05 09:59:34;;;;;;;8.48;6.00;;;;;;;;;;5029522;28;20220;-82
2021/11/05 10:02:01;;;;;;;7.45;5.53;;;;;;;;;;5034907;28;20641;-81
2021/11/05 10:04:29;;;;;;;7.07;5.57;;;;;;;;;;5035926;28;20187;-83
2021/11/05 10:07:05;;;;;;;6.53;5.70;;;;;;;;;;5034890;28;20202;-82
2021/11/05 10:09:38;;;;;;;6.35;5.30;;;;;;;;;;5035178;28;20250;-81
2021/11/05 10:12:12;;;;;;;7.60;4.38;;;;;;;;;;5035219;28;20584;-81
2021/11/05 10:14:41;;;;;;;7.75;5.43;;;;;;;;;;5035794;28;20185;-81
2021/11/05 10:17:16;;;;;;;5.50;4.40;;;;;;;;;;5035348;28;20183;-81
2021/11/05 10:19:50;;;;;;;9.38;4.45;;;;;;;;;;5035521;28;20228;-81
2021/11/05 10:22:46;;;;;;;6.35;5.07;;;;;;;;;;5038545;28;20568;-82
2021/11/05 10:25:24;;;;;;;5.82;4.47;;;;;;;;;;5038169;28;20203;-82
2021/11/05 10:28:12;;;;;;;6.97;5.68;;;;;;;;;;5039277;28;20194;-81
2021/11/05 10:30:57;;;;;;;6.13;4.93;;;;;;;;;;5031563;28;20194;-81
2021/11/05 10:33:30;;;;;;;5.07;4.53;;;;;;;;;;5038588;28;20715;-82
2021/11/05 10:36:04;;;;;;;7.13;5.93;;;;;;;;;;5039298;28;20187;-81
2021/11/05 10:38:37;;;;;;;6.15;5.35;;;;;;;;;;5038734;28;20229;-82
2021/11/05 10:41:08;;;;;;;4.38;3.88;;;;;;;;;;5038114;28;20186;-82
2021/11/05 10:43:46;;;;;;;5.30;4.05;;;;;;;;;;5038251;28;20194;-82
2021/11/05 10:46:32;;;;;;;4.05;3.65;;;;;;;;;;5037662;28;20892;-81
2021/11/05 10:49:04;;;;;;;6.28;4.85;;;;;;;;;;5038277;28;20238;-81
2021/11/05 10:51:33;;;;;;;6.15;5.32;;;;;;;;;;5038556;28;20207;-82
2021/11/05 10:54:04;;;;;;;6.25;4.35;;;;;;;;;;5040033;28;20182;-81
2021/11/05 10:56:33;;;;;;;6.20;4.47;;;;;;;;;;5038375;28;20212;-81
2021/11/05 10:59:03;;;;;;;3.78;3.28;;;;;;;;;;5038464;28;20227;-81
2021/11/05 11:01:34;;;;;;;4.95;4.05;;;;;;;;;;5038798;28;20190;-82
2021/11/05 11:04:04;;;;;;;6.47;4.85;;;;;;;;;;5038125;28;20210;-81
2021/11/05 11:06:34;;;;;;;6.18;3.88;;;;;;;;;;5038452;28;20191;-81
2021/11/05 11:09:07;;;;;;;6.88;5.10;;;;;;;;;;5038388;28;20226;-81
2021/11/05 11:11:38;;;;;;;3.88;3.42;;;;;;;;;;5037876;28;20308;-82
2021/11/05 11:14:07;;;;;;;5.93;4.93;;;;;;;;;;5038323;28;20591;-83
2021/11/05 11:16:38;;;;;;;4.40;3.65;;;;;;;;;;5032658;28;20210;-82
2021/11/05 11:19:08;;;;;;;4.47;3.92;;;;;;;;;;5038260;28;20214;-82
2021/11/05 11:21:37;;;;;;;7.93;4.03;;;;;;;;;;5037849;28;20686;-82
2021/11/05 11:24:09;;;;;;;5.90;4.22;;;;;;;;;;5037800;28;20206;-82
2021/11/05 11:26:39;;;;;;;5.75;3.97;;;;;;;;;;5037539;28;20187;-82
2021/11/05 11:29:08;;;;;;;9.23;5.40;;;;;;;;;;5037437;28;20222;-82
2021/11/05 11:31:37;;;;;;;4.43;3.67;;;;;;;;;;5037645;28;20225;-82
2021/11/05 11:34:06;;;;;;;5.03;3.70;;;;;;;;;;5036948;28;20202;-82
2021/11/05 11:36:35;;;;;;;4.70;3.67;;;;;;;;;;5017521;28;20194;-82
2021/11/05 11:39:09;;;;;;;4.32;3.00;;;;;;;;;;5017410;28;20310;-82
2021/11/05 11:41:37;;;;;;;3.38;3.08;;;;;;;;;;5017675;28;20528;-82
2021/11/05 11:44:06;;;;;;;4.10;3.28;;;;;;;;;;5017925;28;20190;-83
2021/11/05 11:46:57;;;;;;;2.88;2.67;;;;;;;;;;5017913;28;20190;-82
2021/11/05 11:49:45;;;;;;;4.80;3.35;;;;;;;;;;5030960;28;20234;-83
2021/11/05 11:52:34;;;;;;;3.08;2.80;;;;;;;;;;5037306;28;20228;-84
2021/11/05 11:55:18;;;;;;;3.42;3.13;;;;;;;;;;5036260;28;20213;-83
2021/11/05 11:57:46;;;;;;;3.17;2.72;;;;;;;;;;5020347;28;20202;-83
2021/11/05 12:00:20;;;;;;;3.10;2.60;;;;;;;;;;5036866;28;20226;-83
2021/11/05 12:02:49;;;;;;;8.10;3.35;;;;;;;;;;5037716;28;20267;-83
2021/11/05 12:05:38;;;;;;;2.97;2.60;;;;;;;;;;5037119;28;20213;-83
2021/11/05 12:08:42;;;;;;;3.38;2.65;;;;;;;;;;5036511;28;20285;-83
2021/11/05 12:11:27;;;;;;;3.47;3.17;;;;;;;;;;4993961;28;20198;-82
2021/11/05 12:14:09;;;;;;;8.32;4.22;;;;;;;;;;5016718;28;20234;-82
2021/11/05 12:16:38;;;;;;;3.08;2.75;;;;;;;;;;5035338;28;20667;-83
2021/11/05 12:19:22;;;;;;;5.00;3.38;;;;;;;;;;5036044;28;20228;-83
2021/11/05 12:22:13;;;;;;;2.60;2.40;;;;;;;;;;5017336;28;20191;-82
2021/11/05 12:24:42;;;;;;;2.40;2.20;;;;;;;;;;5016671;28;20188;-82
2021/11/05 12:27:24;;;;;;;3.72;3.10;;;;;;;;;;5016835;28;20253;-82
2021/11/05 12:29:59;;;;;;;2.83;2.60;;;;;;;;;;5027768;28;20219;-83
2021/11/05 12:32:33;;;;;;;3.63;3.25;;;;;;;;;;5036633;28;20206;-83
2021/11/05 12:35:32;;;;;;;3.45;2.85;;;;;;;;;;5036530;28;20183;-83
2021/11/05 12:38:09;;;;;;;3.83;3.42;;;;;;;;;;4975343;28;20296;-82
2021/11/05 12:40:56;;;;;;;4.10;3.05;;;;;;;;;;5026758;28;20204;-83
2021/11/05 12:43:43;;;;;;;4.53;3.83;;;;;;;;;;5036209;28;20201;-83
2021/11/05 12:46:22;;;;;;;4.13;3.17;;;;;;;;;;5036162;28;20201;-82
2021/11/05 12:49:01;;;;;;;2.92;2.60;;;;;;;;;;5053927;28;20240;-83
2021/11/05 12:51:41;;;;;;;3.10;2.10;;;;;;;;;;5056730;28;20205;-82
2021/11/05 12:54:14;;;;;;;3.38;3.08;;;;;;;;;;5056804;28;20256;-83
2021/11/05 12:56:45;;;;;;;3.53;2.70;;;;;;;;;;5056501;28;20197;-83
2021/11/05 12:59:16;;;;;;;2.40;2.20;;;;;;;;;;5056951;28;20226;-82
2021/11/05 13:01:44;;;;;;;3.47;3.00;;;;;;;;;;5056516;28;20198;-83
2021/11/05 13:04:14;;;;;;;2.95;2.67;;;;;;;;;;5055902;28;20198;-83
2021/11/05 13:06:50;;;;;;;4.32;2.67;;;;;;;;;;5055873;28;20211;-82
2021/11/05 13:09:34;;;;;;;2.63;2.20;;;;;;;;;;5056196;28;20225;-83
2021/11/05 13:12:13;;;;;;;3.05;2.35;;;;;;;;;;5056751;28;20623;-83
2021/11/05 13:14:57;;;;;;;3.75;3.28;;;;;;;;;;5055974;28;20205;-83
2021/11/05 13:17:33;;;;;;;3.10;2.60;;;;;;;;;;5055854;28;20206;-82
2021/11/05 13:20:04;;;;;;;4.10;3.05;;;;;;;;;;5056397;28;20220;-83
2021/11/05 13:22:34;;;;;;;3.60;2.53;;;;;;;;;;5055704;28;20196;-83
2021/11/05 13:25:31;;;;;;;3.10;2.80;;;;;;;;;;5040992;28;20204;-83
2021/11/05 13:28:05;;;;;;;4.30;2.78;;;;;;;;;;5001036;28;20593;-83
2021/11/05 13:30:38;;;;;;;4.68;2.72;;;;;;;;;;5035847;28;20343;-83
2021/11/05 13:33:06;;;;;;;2.60;2.15;;;;;;;;;;5035789;28;20262;-83
2021/11/05 13:35:45;;;;;;;3.20;2.35;;;;;;;;;;5036060;28;20202;-84
2021/11/05 13:38:13;;;;;;;2.53;2.08;;;;;;;;;;5036658;28;20182;-83
2021/11/05 13:40:47;;;;;;;3.25;2.30;;;;;;;;;;5036040;28;20633;-81
2021/11/05 13:43:15;;;;;;;2.75;2.45;;;;;;;;;;5035886;28;20194;-83
2021/11/05 13:45:47;;;;;;;2.35;2.15;;;;;;;;;;5036180;28;20202;-82
2021/11/05 13:48:20;;;;;;;2.55;2.35;;;;;;;;;;5035791;28;20202;-81
2021/11/05 13:50:50;;;;;;;3.08;2.45;;;;;;;;;;5036246;28;20206;-82
2021/11/05 13:53:20;;;;;;;2.33;2.13;;;;;;;;;;5035939;28;20226;-82
2021/11/05 13:55:49;;;;;;;4.60;3.03;;;;;;;;;;5037308;28;20198;-82
2021/11/05 13:58:28;;;;;;;3.67;2.28;;;;;;;;;;5039824;28;20230;-82
2021/11/05 14:00:58;;;;;;;5.25;2.80;;;;;;;;;;5039866;28;20329;-81
2021/11/05 14:03:27;;;;;;;3.30;2.10;;;;;;;;;;5039627;28;20233;-82
2021/11/05 14:05:55;;;;;;;1.70;1.50;;;;;;;;;;5039431;28;20202;-82
2021/11/05 14:08:23;;;;;;;2.70;2.50;;;;;;;;;;5039341;28;20211;-82
2021/11/05 14:10:55;;;;;;;1.60;1.50;;;;;;;;;;5039367;28;20683;-82
2021/11/05 14:13:24;;;;;;;1.75;1.52;;;;;;;;;;5039957;28;20210;-82
2021/11/05 14:15:51;;;;;;;3.38;2.33;;;;;;;;;;5039187;28;20209;-82
2021/11/05 14:18:23;;;;;;;2.30;2.10;;;;;;;;;;5039475;28;20260;-82
2021/11/05 14:20:52;;;;;;;2.60;2.30;;;;;;;;;;5039309;28;20207;-82
2021/11/05 14:23:31;;;;;;;1.75;1.65;;;;;;;;;;5039510;28;20649;-82
2021/11/05 14:26:01;;;;;;;2.95;1.90;;;;;;;;;;5040444;28;20194;-81
2021/11/05 14:28:28;;;;;;;1.70;1.60;;;;;;;;;;5039765;28;20222;-81
2021/11/05 14:31:02;;;;;;;1.90;1.55;;;;;;;;;;5039210;28;20200;-82
2021/11/05 14:33:31;;;;;;;1.92;1.50;;;;;;;;;;5038613;28;20308;-81
2021/11/05 14:35:59;;;;;;;1.83;1.30;;;;;;;;;;5039084;28;20195;-81
2021/11/05 14:38:27;;;;;;;2.58;1.95;;;;;;;;;;5038818;28;20309;-81
2021/11/05 14:41:01;;;;;;;2.10;1.90;;;;;;;;;;5038933;28;20187;-82
2021/11/05 14:43:30;;;;;;;3.33;2.90;;;;;;;;;;5039236;28;20589;-81
2021/11/05 14:46:08;;;;;;;3.38;2.50;;;;;;;;;;5038907;28;20294;-82
2021/11/05 14:48:37;;;;;;;2.10;1.90;;;;;;;;;;5037763;28;20234;-82